createdAt,value
2022-07-29T00:00:46.343Z,101658.56
2022-07-29T00:05:47.898Z,101660.38
2022-07-29T00:10:49.624Z,101663.75
2022-07-29T00:15:51.210Z,101660.31
2022-07-29T00:20:52.831Z,101639.47
2022-07-29T00:26:00.405Z,101640.25
2022-07-29T00:31:02.041Z,101632.47
2022-07-29T00:36:03.922Z,101639.38
2022-07-29T00:41:05.633Z,101632.31
2022-07-29T00:46:21.427Z,101629.59
2022-07-29T00:51:23.444Z,101626.03
2022-07-29T00:56:24.982Z,101629.31
2022-07-29T01:01:27.320Z,101625.72
2022-07-29T01:06:29.218Z,101630.09
2022-07-29T01:11:30.947Z,101625.59
2022-07-29T01:16:36.329Z,101615.03
2022-07-29T01:21:53.296Z,101615.25
2022-07-29T01:27:27.306Z,101608.84
2022-07-29T01:32:32.332Z,101596.78
2022-07-29T01:37:38.825Z,101600.13
2022-07-29T01:42:44.725Z,101587.16
2022-07-29T01:48:12.839Z,101581.84
2022-07-29T01:53:19.088Z,101592.25
2022-07-29T01:58:22.506Z,101586.03
2022-07-29T02:03:24.965Z,101593.59
2022-07-29T02:08:29.106Z,101594.34
2022-07-29T02:13:32.816Z,101585.53
2022-07-29T02:18:37.002Z,101582.00
2022-07-29T02:23:51.012Z,101594.31
2022-07-29T02:28:57.566Z,101594.13
2022-07-29T02:34:01.364Z,101591.28
2022-07-29T02:39:05.082Z,101588.03
2022-07-29T02:44:11.691Z,101594.13
2022-07-29T02:49:22.219Z,101625.13
2022-07-29T02:54:32.096Z,101648.22
2022-07-29T02:59:35.359Z,101638.97
2022-07-29T03:04:41.070Z,101642.47
2022-07-29T03:09:43.875Z,101652.88
2022-07-29T03:14:46.035Z,101647.81
2022-07-29T03:19:47.954Z,101642.63
2022-07-29T03:24:49.544Z,101639.06
2022-07-29T03:29:51.171Z,101634.84
2022-07-29T03:34:52.904Z,101640.81
2022-07-29T03:39:56.731Z,101636.88
2022-07-29T03:45:04.466Z,101627.06
2022-07-29T03:50:13.037Z,101615.81
2022-07-29T03:55:15.900Z,101611.38
2022-07-29T04:00:17.859Z,101613.16
2022-07-29T04:05:20.302Z,101622.78
2022-07-29T04:10:25.199Z,101616.56
2022-07-29T04:15:33.020Z,101612.75
2022-07-29T04:20:34.628Z,101618.97
2022-07-29T04:25:40.936Z,101621.66
2022-07-29T04:30:42.479Z,101618.84
2022-07-29T04:35:50.481Z,101627.69
2022-07-29T04:40:53.917Z,101613.34
2022-07-29T04:45:56.215Z,101605.66
2022-07-29T04:50:58.191Z,101585.69
2022-07-29T04:56:00.286Z,101568.91
2022-07-29T05:01:01.974Z,101597.06
2022-07-29T05:06:03.725Z,101606.13
2022-07-29T05:11:12.087Z,101629.44
2022-07-29T05:16:41.264Z,101662.81
2022-07-29T05:21:42.975Z,101724.59
2022-07-29T05:26:44.791Z,101732.44
2022-07-29T05:31:46.475Z,101719.00
2022-07-29T05:36:48.060Z,101711.00
2022-07-29T05:41:51.956Z,101702.38
2022-07-29T05:46:53.710Z,101713.72
2022-07-29T05:51:55.329Z,101700.63
2022-07-29T05:56:56.966Z,101711.00
2022-07-29T06:01:59.033Z,101711.50
2022-07-29T06:07:00.632Z,101706.44
2022-07-29T06:12:02.430Z,101697.22
2022-07-29T06:17:04.031Z,101679.63
2022-07-29T06:22:05.758Z,101677.88
2022-07-29T06:27:07.319Z,101667.41
2022-07-29T06:32:10.155Z,101666.59
2022-07-29T06:37:15.375Z,101663.63
2022-07-29T06:42:17.377Z,101674.13
2022-07-29T06:47:18.940Z,101666.31
2022-07-29T06:52:20.798Z,101686.19
2022-07-29T06:57:23.166Z,101690.63
2022-07-29T07:02:24.820Z,101695.94
2022-07-29T07:07:26.721Z,101687.06
2022-07-29T07:12:28.387Z,101684.72
2022-07-29T07:17:30.212Z,101679.63
2022-07-29T07:22:35.662Z,101668.47
2022-07-29T07:27:40.279Z,101697.97
2022-07-29T07:32:41.894Z,101708.00
2022-07-29T07:37:43.612Z,101692.50
2022-07-29T07:42:45.565Z,101685.28
2022-07-29T07:47:47.747Z,101688.25
2022-07-29T07:52:52.959Z,101688.28
2022-07-29T07:57:57.329Z,101695.31
2022-07-29T08:02:59.602Z,101709.25
2022-07-29T08:08:01.222Z,101712.75
2022-07-29T08:13:07.748Z,101729.06
2022-07-29T08:18:09.670Z,101717.97
2022-07-29T08:23:11.297Z,101709.53
2022-07-29T08:28:12.990Z,101720.97
2022-07-29T08:33:14.751Z,101729.78
2022-07-29T08:38:16.292Z,101723.28
2022-07-29T08:43:17.916Z,101757.13
2022-07-29T08:48:22.368Z,101739.25
2022-07-29T08:53:27.432Z,101755.56
2022-07-29T08:58:36.522Z,101777.78
2022-07-29T09:03:40.580Z,101767.13
2022-07-29T09:08:42.779Z,101773.22
2022-07-29T09:13:45.544Z,101768.97
2022-07-29T09:18:48.183Z,101767.59
2022-07-29T09:24:13.037Z,101764.81
2022-07-29T09:29:19.938Z,101766.38
2022-07-29T09:34:29.572Z,101767.41
2022-07-29T09:39:33.284Z,101765.09
2022-07-29T09:44:49.498Z,101772.28
2022-07-29T09:49:52.798Z,101762.84
2022-07-29T09:54:57.215Z,101753.97
2022-07-29T10:00:09.544Z,101755.53
2022-07-29T10:05:25.099Z,101749.53
2022-07-29T10:10:32.889Z,101733.63
2022-07-29T10:15:41.640Z,101750.31
2022-07-29T10:20:43.239Z,101735.34
2022-07-29T10:25:47.076Z,101707.91
2022-07-29T10:30:52.396Z,101696.06
2022-07-29T10:36:06.021Z,101689.91
2022-07-29T10:41:32.065Z,101685.69
2022-07-29T10:46:38.659Z,101684.25
2022-07-29T10:57:54.645Z,101668.72
2022-07-29T11:02:52.174Z,101668.81
2022-07-29T11:08:19.983Z,101667.97
2022-07-29T11:13:44.678Z,101665.50
2022-07-29T11:19:13.610Z,101660.09
2022-07-29T11:29:58.533Z,101658.63
2022-07-29T11:35:38.556Z,101662.97
2022-07-29T11:40:42.584Z,101661.06
2022-07-29T11:45:48.039Z,101662.00
2022-07-29T11:50:50.255Z,101638.72
2022-07-29T11:55:56.320Z,101638.94
2022-07-29T12:01:04.123Z,101642.25
2022-07-29T12:11:38.729Z,101634.94
2022-07-29T12:16:41.542Z,101630.91
2022-07-29T12:21:56.225Z,101635.13
2022-07-29T12:27:00.251Z,101628.09
2022-07-29T12:32:02.910Z,101616.09
2022-07-29T12:37:04.902Z,101621.56
2022-07-29T12:42:14.829Z,101623.94
2022-07-29T12:47:19.164Z,101623.94
2022-07-29T12:52:34.519Z,101618.72
2022-07-29T12:57:47.974Z,101620.03
2022-07-29T13:02:56.890Z,101619.19
2022-07-29T13:08:21.895Z,101614.16
2022-07-29T13:13:24.008Z,101613.34
2022-07-29T13:18:33.731Z,101610.88
2022-07-29T13:23:38.390Z,101615.16
2022-07-29T13:28:40.943Z,101625.25
2022-07-29T13:33:45.950Z,101623.72
2022-07-29T13:38:48.125Z,101625.38
2022-07-29T13:43:50.095Z,101618.69
2022-07-29T13:48:51.822Z,101619.09
2022-07-29T13:53:56.796Z,101616.25
2022-07-29T13:58:58.457Z,101616.34
2022-07-29T14:04:00.148Z,101624.38
2022-07-29T14:09:03.509Z,101624.69
2022-07-29T14:14:05.840Z,101621.38
2022-07-29T14:19:07.401Z,101616.94
2022-07-29T14:24:16.225Z,101608.25
2022-07-29T14:29:23.529Z,101605.56
2022-07-29T14:34:40.630Z,101599.69
2022-07-29T14:39:43.278Z,101603.78
2022-07-29T14:44:45.249Z,101596.44
2022-07-29T14:49:48.571Z,101589.97
2022-07-29T14:54:50.193Z,101596.97
2022-07-29T14:59:51.751Z,101604.66
2022-07-29T15:04:53.403Z,101605.88
2022-07-29T15:09:59.535Z,101610.06
2022-07-29T15:15:01.358Z,101599.31
2022-07-29T15:20:05.930Z,101599.78
2022-07-29T15:25:08.093Z,101601.34
2022-07-29T15:30:10.575Z,101599.28
2022-07-29T15:35:29.493Z,101601.97
2022-07-29T15:40:31.166Z,101594.47
2022-07-29T15:45:40.526Z,101583.84
2022-07-29T15:50:42.227Z,101586.94
2022-07-29T15:55:48.689Z,101590.59
2022-07-29T16:00:50.421Z,101585.41
2022-07-29T16:05:52.069Z,101590.31
2022-07-29T16:10:53.814Z,101583.44
2022-07-29T16:16:02.343Z,101580.41
2022-07-29T16:21:04.652Z,101584.56
2022-07-29T16:26:06.591Z,101575.66
2022-07-29T16:31:09.113Z,101580.66
2022-07-29T16:36:10.758Z,101583.13
2022-07-29T16:41:14.947Z,101570.88
2022-07-29T16:46:19.064Z,101571.16
2022-07-29T16:51:21.222Z,101568.06
2022-07-29T16:56:24.911Z,101570.78
2022-07-29T17:01:26.585Z,101573.50
2022-07-29T17:06:29.658Z,101581.00
2022-07-29T17:11:51.990Z,101574.91
2022-07-29T17:17:01.396Z,101574.19
2022-07-29T17:22:18.755Z,101572.34
2022-07-29T17:27:20.844Z,101580.34
2022-07-29T17:32:23.417Z,101578.09
2022-07-29T17:37:24.994Z,101578.34
2022-07-29T17:42:26.617Z,101577.59
2022-07-29T17:47:28.150Z,101584.97
2022-07-29T17:52:29.752Z,101590.50
2022-07-29T17:57:31.407Z,101602.91
2022-07-29T18:02:33.522Z,101598.53
2022-07-29T18:07:35.235Z,101607.25
2022-07-29T18:12:38.820Z,101621.22
2022-07-29T18:17:57.326Z,101613.50
2022-07-29T18:23:00.365Z,101617.81
2022-07-29T18:28:05.002Z,101630.03
2022-07-29T18:33:21.701Z,101623.16
2022-07-29T18:38:24.018Z,101632.00
2022-07-29T18:43:25.716Z,101631.97
2022-07-29T18:48:28.364Z,101626.84
2022-07-29T18:53:29.919Z,101634.72
2022-07-29T18:58:33.428Z,101635.56
2022-07-29T19:03:35.275Z,101638.25
2022-07-29T19:08:36.833Z,101649.72
2022-07-29T19:13:38.939Z,101652.31
2022-07-29T19:18:40.628Z,101643.63
2022-07-29T19:24:05.909Z,101654.13
2022-07-29T19:29:04.327Z,101649.78
2022-07-29T19:34:05.932Z,101662.00
2022-07-29T19:39:07.628Z,101669.06
2022-07-29T19:44:11.295Z,101679.56
2022-07-29T19:49:13.693Z,101686.50
2022-07-29T19:54:18.241Z,101692.59
2022-07-29T19:59:20.070Z,101691.75
2022-07-29T20:04:26.191Z,101691.78
2022-07-29T20:09:29.857Z,101698.69
2022-07-29T20:14:31.587Z,101695.22
2022-07-29T20:19:33.544Z,101697.75
2022-07-29T20:24:36.225Z,101699.53
2022-07-29T20:29:38.385Z,101693.44
2022-07-29T20:34:43.425Z,101702.13
2022-07-29T20:39:47.832Z,101704.78
2022-07-29T20:44:51.098Z,101703.94
2022-07-29T20:49:53.062Z,101709.16
2022-07-29T20:54:54.669Z,101703.03
2022-07-29T20:59:56.271Z,101703.91
2022-07-29T21:04:57.886Z,101710.00
2022-07-29T21:09:59.447Z,101708.28
2022-07-29T21:15:05.707Z,101714.38
2022-07-29T21:20:08.640Z,101726.56
2022-07-29T21:25:11.093Z,101723.97
2022-07-29T21:30:12.807Z,101726.59
2022-07-29T21:35:35.991Z,101743.97
2022-07-29T21:40:36.122Z,101738.72
2022-07-29T21:45:37.914Z,101735.28
2022-07-29T21:50:41.529Z,101739.56
2022-07-29T21:55:43.611Z,101742.22
2022-07-29T22:00:45.663Z,101741.38
2022-07-29T22:05:47.259Z,101737.03
2022-07-29T22:10:48.877Z,101737.78
2022-07-29T22:15:52.671Z,101736.94
2022-07-29T22:20:54.267Z,101742.13
2022-07-29T22:25:55.823Z,101731.69
2022-07-29T22:30:59.482Z,101736.91
2022-07-29T22:36:01.165Z,101743.81
2022-07-29T22:41:05.769Z,101741.19
2022-07-29T22:46:09.879Z,101745.50
2022-07-29T22:51:11.488Z,101744.66
2022-07-29T22:56:13.323Z,101735.16
2022-07-29T23:01:15.636Z,101745.56
2022-07-29T23:06:17.349Z,101736.72
2022-07-29T23:11:18.881Z,101734.88
2022-07-29T23:16:26.158Z,101735.66
2022-07-29T23:21:28.742Z,101727.69
2022-07-29T23:26:31.759Z,101730.91
2022-07-29T23:31:34.757Z,101721.94
2022-07-29T23:36:43.587Z,101730.44
2022-07-29T23:41:45.115Z,101734.50
2022-07-29T23:46:46.726Z,101730.31
2022-07-29T23:51:48.266Z,101733.13
2022-07-29T23:56:49.853Z,101734.88
